createdAt,value
2024-05-09T00:01:55.866Z,9.20
2024-05-09T00:03:58.105Z,9.48
2024-05-09T00:06:00.091Z,10.98
2024-05-09T00:08:07.512Z,10.98
2024-05-09T00:10:15.151Z,10.70
2024-05-09T00:12:25.380Z,10.73
2024-05-09T00:14:27.411Z,11.10
2024-05-09T00:16:29.479Z,9.85
2024-05-09T00:18:31.706Z,10.07
2024-05-09T00:20:38.826Z,9.40
2024-05-09T00:22:43.260Z,9.05
2024-05-09T00:24:47.666Z,9.88
2024-05-09T00:26:49.690Z,8.82
2024-05-09T00:28:51.590Z,8.90
2024-05-09T00:30:53.416Z,9.27
2024-05-09T00:32:55.572Z,8.90
2024-05-09T00:34:57.546Z,8.57
2024-05-09T00:36:59.715Z,8.95
2024-05-09T00:39:01.471Z,8.50
2024-05-09T00:41:06.334Z,9.68
2024-05-09T00:43:08.588Z,9.70
2024-05-09T00:45:12.302Z,9.80
2024-05-09T00:47:14.348Z,9.52
2024-05-09T00:49:16.570Z,8.65
2024-05-09T00:51:19.642Z,10.00
2024-05-09T00:53:22.047Z,8.85
2024-05-09T00:55:24.235Z,10.27
2024-05-09T00:57:28.733Z,9.93
2024-05-09T00:59:33.329Z,10.07
2024-05-09T01:01:35.333Z,9.25
2024-05-09T01:03:37.491Z,9.90
2024-05-09T01:05:39.916Z,9.30
2024-05-09T01:07:43.215Z,9.43
2024-05-09T01:09:45.076Z,9.85
2024-05-09T01:11:46.916Z,9.68
2024-05-09T01:13:51.409Z,10.05
2024-05-09T01:15:53.409Z,9.40
2024-05-09T01:17:55.688Z,10.27
2024-05-09T01:19:57.707Z,10.07
2024-05-09T01:21:59.584Z,10.07
2024-05-09T01:24:04.534Z,9.48
2024-05-09T01:26:06.333Z,10.35
2024-05-09T01:28:08.289Z,10.05
2024-05-09T01:30:16.954Z,9.90
2024-05-09T01:32:22.753Z,10.48
2024-05-09T01:34:25.007Z,11.95
2024-05-09T01:36:26.913Z,10.27
2024-05-09T01:38:28.829Z,11.05
2024-05-09T01:40:38.128Z,10.15
2024-05-09T01:42:41.897Z,10.90
2024-05-09T01:44:43.673Z,10.63
2024-05-09T01:46:45.510Z,10.77
2024-05-09T01:48:47.474Z,10.90
2024-05-09T01:50:49.352Z,11.13
2024-05-09T01:52:51.233Z,11.35
2024-05-09T01:54:53.545Z,11.10
2024-05-09T01:56:57.976Z,11.10
2024-05-09T01:58:59.812Z,10.88
2024-05-09T02:01:01.711Z,10.52
2024-05-09T02:03:04.096Z,10.65
2024-05-09T02:05:06.682Z,10.95
2024-05-09T02:07:08.548Z,12.00
2024-05-09T02:09:10.377Z,11.50
2024-05-09T02:11:12.255Z,12.57
2024-05-09T02:13:17.199Z,12.57
2024-05-09T02:15:19.000Z,12.05
2024-05-09T02:17:20.902Z,12.13
2024-05-09T02:19:22.930Z,12.45
2024-05-09T02:21:24.819Z,11.20
2024-05-09T02:23:26.616Z,12.00
2024-05-09T02:25:28.454Z,12.30
2024-05-09T02:27:30.204Z,11.02
2024-05-09T02:29:34.709Z,11.70
2024-05-09T02:31:36.537Z,12.05
2024-05-09T02:33:38.520Z,11.38
2024-05-09T02:35:40.968Z,11.95
2024-05-09T02:37:42.879Z,11.43
2024-05-09T02:39:44.709Z,11.15
2024-05-09T02:41:46.567Z,11.68
2024-05-09T02:43:48.444Z,11.68
2024-05-09T02:45:52.856Z,11.63
2024-05-09T02:47:54.978Z,13.15
2024-05-09T02:49:57.036Z,11.77
2024-05-09T02:51:58.853Z,11.27
2024-05-09T02:54:00.653Z,12.38
2024-05-09T02:56:02.523Z,12.02
2024-05-09T02:58:04.716Z,11.07
2024-05-09T03:00:15.004Z,11.13
2024-05-09T03:02:23.212Z,13.10
2024-05-09T03:04:25.026Z,12.27
2024-05-09T03:06:26.918Z,12.05
2024-05-09T03:08:28.950Z,11.35
2024-05-09T03:10:35.945Z,12.65
2024-05-09T03:12:39.900Z,10.70
2024-05-09T03:14:41.707Z,11.05
2024-05-09T03:16:43.579Z,11.40
2024-05-09T03:18:48.084Z,11.75
2024-05-09T03:20:49.886Z,11.40
2024-05-09T03:22:54.872Z,11.80
2024-05-09T03:24:58.172Z,11.07
2024-05-09T03:26:59.957Z,12.13
2024-05-09T03:29:01.785Z,10.50
2024-05-09T03:31:03.757Z,11.55
2024-05-09T03:33:05.958Z,11.00
2024-05-09T03:35:10.432Z,10.07
2024-05-09T03:37:13.285Z,10.40
2024-05-09T03:39:15.178Z,10.52
2024-05-09T03:41:19.374Z,11.45
2024-05-09T03:43:21.341Z,12.32
2024-05-09T03:45:23.079Z,12.02
2024-05-09T03:47:24.938Z,12.25
2024-05-09T03:49:26.959Z,12.15
2024-05-09T03:51:31.455Z,12.32
2024-05-09T03:53:33.388Z,12.50
2024-05-09T03:55:36.408Z,11.63
2024-05-09T03:57:39.617Z,12.10
2024-05-09T03:59:41.499Z,12.57
2024-05-09T04:01:43.418Z,13.63
2024-05-09T04:03:45.392Z,12.00
2024-05-09T04:05:47.302Z,11.90
2024-05-09T04:07:51.960Z,11.18
2024-05-09T04:09:53.716Z,11.55
2024-05-09T04:11:56.285Z,13.02
2024-05-09T04:13:58.236Z,11.73
2024-05-09T04:16:00.021Z,13.25
2024-05-09T04:18:02.643Z,12.48
2024-05-09T04:20:08.335Z,12.82
2024-05-09T04:22:10.316Z,12.30
2024-05-09T04:24:14.756Z,11.57
2024-05-09T04:26:16.985Z,12.65
2024-05-09T04:28:19.012Z,11.93
2024-05-09T04:30:30.182Z,12.20
2024-05-09T04:32:38.352Z,12.27
2024-05-09T04:34:40.255Z,12.27
2024-05-09T04:36:44.542Z,11.85
2024-05-09T04:38:46.565Z,11.65
2024-05-09T04:40:51.759Z,13.07
2024-05-09T04:42:53.617Z,10.88
2024-05-09T04:44:58.680Z,10.50
2024-05-09T04:47:00.664Z,9.95
2024-05-09T04:49:02.668Z,10.18
2024-05-09T04:51:07.168Z,9.60
2024-05-09T04:53:10.592Z,9.65
2024-05-09T04:55:13.619Z,9.13
2024-05-09T04:57:18.022Z,10.05
2024-05-09T04:59:19.816Z,9.68
2024-05-09T05:01:21.723Z,9.20
2024-05-09T05:03:23.773Z,9.45
2024-05-09T05:05:25.772Z,9.10
2024-05-09T05:07:27.550Z,9.60
2024-05-09T05:09:29.469Z,9.75
2024-05-09T05:11:31.335Z,10.02
2024-05-09T05:13:38.636Z,9.70
2024-05-09T05:15:42.915Z,9.38
2024-05-09T05:17:44.889Z,9.43
2024-05-09T05:19:47.985Z,9.82
2024-05-09T05:21:49.822Z,9.55
2024-05-09T05:23:51.601Z,9.13
2024-05-09T05:25:54.184Z,9.60
2024-05-09T05:27:56.317Z,9.65
2024-05-09T05:30:00.781Z,9.60
2024-05-09T05:32:02.630Z,10.15
2024-05-09T05:34:04.677Z,8.80
2024-05-09T05:36:07.214Z,8.93
2024-05-09T05:38:10.271Z,9.20
2024-05-09T05:40:20.614Z,10.10
2024-05-09T05:42:26.878Z,9.48
2024-05-09T05:44:28.719Z,9.50
2024-05-09T05:46:33.149Z,9.02
2024-05-09T05:48:35.238Z,9.93
2024-05-09T05:50:38.880Z,8.32
2024-05-09T05:52:40.914Z,9.65
2024-05-09T05:54:42.775Z,8.65
2024-05-09T05:56:44.714Z,9.80
2024-05-09T05:58:46.648Z,8.30
2024-05-09T06:00:48.565Z,8.75
2024-05-09T06:02:53.267Z,8.68
2024-05-09T06:04:55.606Z,9.02
2024-05-09T06:06:57.421Z,8.98
2024-05-09T06:08:59.224Z,7.78
2024-05-09T06:11:01.160Z,8.27
2024-05-09T06:13:03.087Z,7.53
2024-05-09T06:15:06.083Z,7.43
2024-05-09T06:17:07.956Z,8.05
2024-05-09T06:21:16.766Z,8.20
2024-05-09T06:23:18.687Z,7.10
2024-05-09T06:25:20.772Z,7.05
2024-05-09T06:27:22.594Z,6.88
2024-05-09T06:29:24.435Z,7.15
2024-05-09T06:31:26.353Z,7.47
2024-05-09T06:33:28.403Z,6.82
2024-05-09T06:35:33.387Z,7.32
2024-05-09T06:37:35.414Z,7.28
2024-05-09T06:39:37.218Z,6.68
2024-05-09T06:41:39.057Z,6.50
2024-05-09T06:43:41.794Z,6.60
2024-05-09T06:45:44.230Z,6.78
2024-05-09T06:47:46.215Z,7.57
2024-05-09T06:49:48.159Z,7.07
2024-05-09T06:51:52.604Z,6.45
2024-05-09T06:53:54.689Z,7.57
2024-05-09T06:55:56.497Z,6.93
2024-05-09T06:57:58.283Z,6.57
2024-05-09T07:00:00.050Z,5.93
2024-05-09T07:02:02.644Z,6.68
2024-05-09T07:04:04.970Z,5.97
2024-05-09T07:06:07.010Z,6.35
2024-05-09T07:08:11.867Z,6.00
2024-05-09T07:10:21.699Z,6.07
2024-05-09T07:12:27.708Z,5.50
2024-05-09T07:14:30.019Z,5.63
2024-05-09T07:16:32.094Z,6.07
2024-05-09T07:18:34.019Z,5.53
2024-05-09T07:20:35.952Z,5.28
2024-05-09T07:22:37.842Z,5.70
2024-05-09T07:24:42.226Z,6.47
2024-05-09T07:26:44.046Z,6.03
2024-05-09T07:28:45.975Z,5.55
2024-05-09T07:30:48.054Z,5.88
2024-05-09T07:32:50.162Z,5.38
2024-05-09T07:34:52.190Z,5.90
2024-05-09T07:36:54.025Z,5.70
2024-05-09T07:38:55.806Z,5.47
2024-05-09T07:41:00.231Z,4.78
2024-05-09T07:43:03.227Z,5.43
2024-05-09T07:45:21.581Z,5.22
2024-05-09T07:48:57.124Z,5.28
2024-05-09T07:51:32.778Z,4.57
2024-05-09T07:53:29.674Z,4.72
2024-05-09T07:54:35.788Z,5.07
2024-05-09T07:56:40.660Z,4.53
2024-05-09T07:58:43.617Z,4.43
2024-05-09T08:00:45.500Z,5.00
2024-05-09T08:02:47.483Z,4.68
2024-05-09T08:04:49.560Z,4.03
2024-05-09T08:06:51.481Z,4.80
2024-05-09T08:08:53.500Z,4.88
2024-05-09T08:10:55.450Z,4.80
2024-05-09T08:13:00.012Z,4.85
2024-05-09T08:15:02.029Z,4.20
2024-05-09T08:17:04.278Z,4.28
2024-05-09T08:19:06.320Z,4.00
2024-05-09T08:21:08.234Z,3.97
2024-05-09T08:23:11.263Z,4.35
2024-05-09T08:25:14.260Z,4.60
2024-05-09T08:27:16.209Z,4.65
2024-05-09T08:29:20.565Z,4.38
2024-05-09T08:31:22.435Z,4.00
2024-05-09T08:33:24.456Z,4.22
2024-05-09T08:35:28.772Z,3.67
2024-05-09T08:37:35.010Z,4.20
2024-05-09T08:39:39.914Z,4.53
2024-05-09T08:41:42.887Z,4.35
2024-05-09T08:43:44.935Z,4.28
2024-05-09T08:45:49.581Z,4.18
2024-05-09T08:47:53.425Z,4.60
2024-05-09T08:49:58.434Z,3.72
2024-05-09T08:52:00.472Z,4.18
2024-05-09T08:54:02.356Z,3.95
2024-05-09T08:56:06.549Z,4.07
2024-05-09T08:58:10.349Z,4.30
2024-05-09T09:00:15.146Z,4.60
2024-05-09T09:02:24.346Z,3.85
2024-05-09T09:06:29.552Z,3.90
2024-05-09T09:08:32.446Z,4.07
2024-05-09T09:10:35.185Z,4.10
2024-05-09T09:12:37.329Z,4.43
2024-05-09T09:14:39.135Z,4.10
2024-05-09T09:16:40.954Z,4.40
2024-05-09T09:18:46.537Z,3.67
2024-05-09T09:20:48.682Z,4.00
2024-05-09T09:22:50.512Z,3.53
2024-05-09T09:24:52.542Z,4.15
2024-05-09T09:26:56.901Z,3.45
2024-05-09T09:28:59.942Z,3.80
2024-05-09T09:31:01.982Z,4.03
2024-05-09T09:33:03.997Z,4.32
2024-05-09T09:35:08.764Z,4.18
2024-05-09T09:37:11.446Z,4.00
2024-05-09T09:39:16.872Z,4.35
2024-05-09T09:41:23.962Z,3.50
2024-05-09T09:43:26.704Z,3.55
2024-05-09T09:45:29.278Z,3.50
2024-05-09T09:47:32.081Z,3.13
2024-05-09T09:49:36.071Z,3.45
2024-05-09T09:51:42.542Z,4.00
2024-05-09T09:53:45.118Z,3.45
2024-05-09T09:55:48.125Z,3.72
2024-05-09T09:57:50.003Z,2.72
2024-05-09T09:59:54.605Z,3.60
2024-05-09T10:01:57.082Z,3.17
2024-05-09T10:03:59.340Z,3.00
2024-05-09T10:06:02.031Z,3.20
2024-05-09T10:08:08.401Z,2.90
2024-05-09T10:10:13.992Z,2.60
2024-05-09T10:12:20.706Z,2.75
2024-05-09T10:14:22.526Z,3.05
2024-05-09T10:16:24.535Z,2.80
2024-05-09T10:18:36.462Z,2.67
2024-05-09T10:20:40.373Z,2.72
2024-05-09T10:22:46.783Z,2.45
2024-05-09T10:26:53.468Z,2.20
2024-05-09T10:28:56.120Z,2.47
2024-05-09T10:31:03.058Z,2.80
2024-05-09T10:33:10.710Z,2.22
2024-05-09T10:35:12.975Z,2.05
2024-05-09T10:37:15.256Z,1.85
2024-05-09T10:39:17.657Z,1.75
2024-05-09T10:41:23.518Z,2.35
2024-05-09T10:43:25.823Z,2.72
2024-05-09T10:45:28.190Z,2.30
2024-05-09T10:47:30.248Z,2.17
2024-05-09T10:49:32.142Z,2.55
2024-05-09T10:51:34.358Z,2.15
2024-05-09T10:53:42.471Z,2.42
2024-05-09T10:55:55.032Z,2.45
2024-05-09T10:57:59.552Z,2.42
2024-05-09T11:00:01.410Z,2.38
2024-05-09T11:02:04.812Z,2.60
2024-05-09T11:04:08.415Z,2.50
2024-05-09T11:06:10.964Z,2.30
2024-05-09T11:08:13.252Z,2.63
2024-05-09T11:10:20.996Z,2.40
2024-05-09T11:12:29.313Z,2.53
2024-05-09T11:14:34.167Z,2.50
2024-05-09T11:16:36.041Z,2.20
2024-05-09T11:18:39.231Z,2.08
2024-05-09T11:20:41.485Z,2.15
2024-05-09T11:22:45.234Z,2.28
2024-05-09T11:24:47.100Z,2.60
2024-05-09T11:26:49.049Z,2.58
2024-05-09T11:28:51.860Z,2.20
2024-05-09T11:31:05.450Z,2.63
2024-05-09T11:33:11.302Z,2.70
2024-05-09T11:35:13.101Z,2.72
2024-05-09T11:37:15.042Z,2.55
2024-05-09T11:39:16.917Z,2.33
2024-05-09T11:41:18.906Z,2.58
2024-05-09T11:43:21.149Z,2.15
2024-05-09T11:45:23.162Z,2.60
2024-05-09T11:47:27.739Z,2.58
2024-05-09T11:49:29.722Z,2.63
2024-05-09T11:51:31.652Z,2.90
2024-05-09T11:53:33.463Z,2.20
2024-05-09T11:55:35.343Z,2.45
2024-05-09T11:57:37.268Z,2.30
2024-05-09T11:59:39.101Z,2.63
2024-05-09T12:01:41.001Z,2.30
2024-05-09T12:03:45.897Z,2.17
2024-05-09T12:05:47.943Z,2.30
2024-05-09T12:07:50.062Z,1.95
2024-05-09T12:09:51.841Z,2.08
2024-05-09T12:11:53.836Z,2.20
2024-05-09T12:13:55.690Z,2.33
2024-05-09T12:15:58.162Z,2.20
2024-05-09T12:18:02.515Z,2.15
2024-05-09T12:20:17.418Z,2.20
2024-05-09T12:22:27.024Z,2.20
2024-05-09T12:24:28.869Z,1.85
2024-05-09T12:26:30.767Z,2.00
2024-05-09T12:28:32.617Z,1.80
2024-05-09T12:30:38.398Z,2.00
2024-05-09T12:32:42.310Z,2.20
2024-05-09T12:34:44.156Z,1.70
2024-05-09T12:36:48.712Z,1.65
2024-05-09T12:38:50.537Z,1.90
2024-05-09T12:40:52.586Z,2.00
2024-05-09T12:42:54.550Z,1.92
2024-05-09T12:44:56.350Z,2.22
2024-05-09T12:46:58.222Z,2.30
2024-05-09T12:49:00.370Z,1.85
2024-05-09T12:51:02.621Z,1.90
2024-05-09T12:53:07.172Z,1.75
2024-05-09T12:55:10.419Z,2.05
2024-05-09T12:57:12.430Z,1.90
2024-05-09T12:59:14.272Z,1.50
2024-05-09T13:01:16.205Z,2.10
2024-05-09T13:03:18.216Z,2.00
2024-05-09T13:05:20.150Z,2.20
2024-05-09T13:07:22.399Z,2.00
2024-05-09T13:09:26.955Z,2.30
2024-05-09T13:11:28.787Z,2.10
2024-05-09T13:13:30.542Z,2.15
2024-05-09T13:15:33.449Z,2.03
2024-05-09T13:17:35.476Z,1.95
2024-05-09T13:19:37.250Z,1.88
2024-05-09T13:21:39.067Z,1.65
2024-05-09T13:23:40.837Z,1.90
2024-05-09T13:25:45.232Z,2.17
2024-05-09T13:27:47.317Z,1.65
2024-05-09T13:29:49.189Z,1.80
2024-05-09T13:31:50.957Z,2.40
2024-05-09T13:33:52.847Z,1.80
2024-05-09T13:35:54.725Z,1.90
2024-05-09T13:37:56.514Z,2.00
2024-05-09T13:39:58.495Z,2.42
2024-05-09T13:42:03.047Z,1.98
2024-05-09T13:44:05.132Z,2.60
2024-05-09T13:46:07.088Z,2.88
2024-05-09T13:48:09.249Z,2.03
2024-05-09T13:50:16.968Z,2.10
2024-05-09T13:52:25.716Z,2.08
2024-05-09T13:54:27.729Z,2.22
2024-05-09T13:56:29.617Z,1.80
2024-05-09T13:58:34.345Z,2.10
2024-05-09T14:00:44.490Z,1.95
2024-05-09T14:02:50.141Z,2.28
2024-05-09T14:04:52.069Z,2.30
2024-05-09T14:06:54.128Z,1.88
2024-05-09T14:08:56.036Z,1.80
2024-05-09T14:10:57.911Z,2.00
2024-05-09T14:13:00.479Z,2.13
2024-05-09T14:15:05.786Z,2.13
2024-05-09T14:17:07.802Z,2.58
2024-05-09T14:19:09.780Z,2.20
2024-05-09T14:21:11.631Z,1.80
2024-05-09T14:23:14.036Z,1.88
2024-05-09T14:25:16.009Z,2.08
2024-05-09T14:27:18.199Z,1.98
2024-05-09T14:29:20.005Z,2.45
2024-05-09T14:31:24.447Z,1.90
2024-05-09T14:33:26.828Z,1.98
2024-05-09T14:35:28.860Z,1.90
2024-05-09T14:37:30.714Z,2.00
2024-05-09T14:39:32.563Z,2.10
2024-05-09T14:41:34.384Z,1.95
2024-05-09T14:43:36.130Z,1.80
2024-05-09T14:45:38.036Z,2.38
2024-05-09T14:47:42.618Z,2.17
2024-05-09T14:49:44.805Z,2.13
2024-05-09T14:51:47.976Z,2.05
2024-05-09T14:53:49.746Z,2.33
2024-05-09T14:55:51.794Z,2.10
2024-05-09T14:57:53.894Z,2.15
2024-05-09T14:59:55.810Z,2.10
2024-05-09T15:01:57.702Z,2.10
2024-05-09T15:04:02.483Z,2.05
2024-05-09T15:06:04.611Z,2.22
2024-05-09T15:08:07.773Z,2.20
2024-05-09T15:10:16.515Z,2.20
2024-05-09T15:12:25.203Z,2.25
2024-05-09T15:14:26.951Z,1.83
2024-05-09T15:16:28.782Z,1.90
2024-05-09T15:18:30.842Z,2.10
2024-05-09T15:20:37.091Z,2.13
2024-05-09T15:22:39.695Z,2.20
2024-05-09T15:24:42.215Z,1.83
2024-05-09T15:26:44.103Z,2.10
2024-05-09T15:28:46.019Z,2.00
2024-05-09T15:30:48.059Z,2.33
2024-05-09T15:32:50.090Z,2.00
2024-05-09T15:34:51.971Z,2.40
2024-05-09T15:36:58.102Z,2.30
2024-05-09T15:39:00.270Z,2.35
2024-05-09T15:41:02.133Z,2.30
2024-05-09T15:43:04.348Z,1.98
2024-05-09T15:45:06.591Z,2.30
2024-05-09T15:47:08.456Z,2.15
2024-05-09T15:49:10.428Z,2.03
2024-05-09T15:51:12.388Z,1.98
2024-05-09T15:53:16.796Z,1.90
2024-05-09T15:55:18.704Z,1.90
2024-05-09T15:57:20.727Z,2.30
2024-05-09T15:59:22.542Z,2.00
2024-05-09T16:01:24.532Z,2.20
2024-05-09T16:03:26.536Z,1.92
2024-05-09T16:05:28.606Z,2.22
2024-05-09T16:07:30.681Z,1.92
2024-05-09T16:09:35.183Z,1.95
2024-05-09T16:11:37.016Z,2.55
2024-05-09T16:13:38.893Z,2.47
2024-05-09T16:15:41.022Z,2.20
2024-05-09T16:17:43.002Z,2.22
2024-05-09T16:19:44.884Z,2.20
2024-05-09T16:21:46.722Z,2.25
2024-05-09T16:23:48.557Z,2.30
2024-05-09T16:25:53.081Z,2.22
2024-05-09T16:27:54.936Z,2.20
2024-05-09T16:29:56.827Z,1.98
2024-05-09T16:31:58.624Z,2.25
2024-05-09T16:34:00.563Z,2.30
2024-05-09T16:36:02.502Z,2.20
2024-05-09T16:38:05.174Z,2.55
2024-05-09T16:40:18.644Z,2.63
2024-05-09T16:42:30.748Z,1.83
2024-05-09T16:44:33.680Z,2.22
2024-05-09T16:46:37.081Z,1.92
2024-05-09T16:48:38.992Z,2.20
2024-05-09T16:50:40.853Z,2.20
2024-05-09T16:52:42.638Z,2.20
2024-05-09T16:54:44.394Z,2.28
2024-05-09T16:56:46.354Z,3.35
2024-05-09T16:58:51.115Z,2.10
2024-05-09T17:00:52.970Z,2.08
2024-05-09T17:02:54.884Z,2.30
2024-05-09T17:04:56.848Z,2.15
2024-05-09T17:06:58.876Z,2.20
2024-05-09T17:09:08.378Z,2.15
2024-05-09T17:11:13.707Z,2.20
2024-05-09T17:13:15.694Z,2.05
2024-05-09T17:15:20.103Z,2.58
2024-05-09T17:17:22.232Z,2.35
2024-05-09T17:19:24.402Z,2.13
2024-05-09T17:21:26.408Z,3.20
2024-05-09T17:23:28.725Z,2.17
2024-05-09T17:25:31.087Z,2.08
2024-05-09T17:27:33.107Z,2.25
2024-05-09T17:29:35.347Z,2.50
2024-05-09T17:31:39.835Z,2.10
2024-05-09T17:33:41.934Z,2.10
2024-05-09T17:35:43.858Z,2.22
2024-05-09T17:37:45.654Z,2.10
2024-05-09T17:39:47.508Z,2.08
2024-05-09T17:41:49.300Z,2.20
2024-05-09T17:43:51.181Z,2.28
2024-05-09T17:45:53.015Z,2.70
2024-05-09T17:47:58.365Z,2.40
2024-05-09T17:50:00.457Z,2.13
2024-05-09T17:52:02.363Z,2.63
2024-05-09T17:54:04.152Z,2.47
2024-05-09T17:56:07.083Z,2.30
2024-05-09T17:58:09.940Z,2.30
2024-05-09T18:00:17.288Z,2.65
2024-05-09T18:02:23.060Z,2.53
2024-05-09T18:04:29.637Z,2.47
2024-05-09T18:06:33.180Z,2.50
2024-05-09T18:08:34.999Z,2.28
2024-05-09T18:10:39.382Z,2.55
2024-05-09T18:12:42.134Z,2.60
2024-05-09T18:14:44.004Z,2.75
2024-05-09T18:16:45.930Z,2.60
2024-05-09T18:18:47.965Z,2.63
2024-05-09T18:20:52.465Z,2.60
2024-05-09T18:22:55.234Z,2.42
2024-05-09T18:24:57.088Z,2.50
2024-05-09T18:26:59.135Z,2.85
2024-05-09T18:29:01.043Z,2.80
2024-05-09T18:31:02.900Z,2.85
2024-05-09T18:33:06.832Z,2.80
2024-05-09T18:35:10.801Z,2.58
2024-05-09T18:37:15.274Z,2.65
2024-05-09T18:39:17.111Z,2.38
2024-05-09T18:41:18.991Z,2.65
2024-05-09T18:43:28.403Z,2.83
2024-05-09T18:45:33.163Z,2.67
2024-05-09T18:47:35.320Z,2.70
2024-05-09T18:49:37.254Z,2.50
2024-05-09T18:51:39.079Z,2.97
2024-05-09T18:53:44.971Z,2.83
2024-05-09T18:55:46.888Z,2.38
2024-05-09T18:57:48.775Z,2.30
2024-05-09T18:59:50.636Z,2.50
2024-05-09T19:01:52.649Z,2.70
2024-05-09T19:03:55.410Z,2.92
2024-05-09T19:05:57.503Z,2.33
2024-05-09T19:07:59.452Z,2.88
2024-05-09T19:10:05.558Z,2.80
2024-05-09T19:12:07.899Z,2.60
2024-05-09T19:14:09.761Z,2.50
2024-05-09T19:16:11.679Z,3.00
2024-05-09T19:18:14.295Z,2.58
2024-05-09T19:20:25.176Z,3.15
2024-05-09T19:22:33.231Z,2.78
2024-05-09T19:24:35.050Z,3.08
2024-05-09T19:26:39.528Z,2.97
2024-05-09T19:28:41.347Z,3.17
2024-05-09T19:30:43.475Z,2.80
2024-05-09T19:32:45.482Z,2.80
2024-05-09T19:34:47.425Z,2.55
2024-05-09T19:36:49.422Z,2.47
2024-05-09T19:38:51.332Z,2.80
2024-05-09T19:40:53.391Z,3.05
2024-05-09T19:42:58.004Z,2.97
2024-05-09T19:44:59.776Z,3.65
2024-05-09T19:47:01.888Z,2.90
2024-05-09T19:49:03.852Z,2.97
2024-05-09T19:51:05.869Z,2.83
2024-05-09T19:53:07.860Z,2.70
2024-05-09T19:55:09.798Z,2.55
2024-05-09T19:57:11.621Z,2.45
2024-05-09T19:59:16.068Z,2.83
2024-05-09T20:01:17.982Z,2.78
2024-05-09T20:03:20.048Z,2.45
2024-05-09T20:05:22.253Z,2.70
2024-05-09T20:07:24.215Z,2.80
2024-05-09T20:09:26.108Z,2.30
2024-05-09T20:11:27.933Z,2.75
2024-05-09T20:13:29.755Z,2.50
2024-05-09T20:15:35.340Z,2.47
2024-05-09T20:17:38.315Z,2.40
2024-05-09T20:19:42.892Z,2.40
2024-05-09T20:21:44.847Z,2.60
2024-05-09T20:23:46.687Z,2.30
2024-05-09T20:25:48.494Z,2.70
2024-05-09T20:27:50.294Z,2.63
2024-05-09T20:29:52.194Z,2.38
2024-05-09T20:31:56.581Z,2.38
2024-05-09T20:33:58.501Z,2.53
2024-05-09T20:36:02.152Z,2.55
2024-05-09T20:38:05.204Z,2.35
2024-05-09T20:40:12.269Z,2.75
2024-05-09T20:42:17.558Z,2.60
2024-05-09T20:44:19.478Z,2.40
2024-05-09T20:46:21.383Z,2.38
2024-05-09T20:48:26.082Z,2.85
2024-05-09T20:50:36.031Z,2.40
2024-05-09T20:52:41.773Z,2.10
2024-05-09T20:54:43.605Z,2.50
2024-05-09T20:56:45.444Z,2.75
2024-05-09T20:58:47.262Z,2.30
2024-05-09T21:00:49.229Z,3.75
2024-05-09T21:02:51.053Z,2.35
2024-05-09T21:04:55.664Z,2.60
2024-05-09T21:06:57.529Z,2.45
2024-05-09T21:08:59.357Z,2.88
2024-05-09T21:11:01.257Z,2.50
2024-05-09T21:13:03.928Z,2.30
2024-05-09T21:15:06.894Z,2.80
2024-05-09T21:17:08.811Z,2.35
2024-05-09T21:19:10.667Z,2.10
2024-05-09T21:21:15.066Z,2.42
2024-05-09T21:23:16.898Z,2.40
2024-05-09T21:25:18.734Z,2.40
2024-05-09T21:27:20.542Z,2.40
2024-05-09T21:29:22.310Z,2.30
2024-05-09T21:31:24.206Z,2.35
2024-05-09T21:33:26.163Z,2.13
2024-05-09T21:35:27.957Z,2.53
2024-05-09T21:37:32.353Z,2.22
2024-05-09T21:39:34.290Z,2.38
2024-05-09T21:41:36.102Z,2.30
2024-05-09T21:43:38.120Z,2.50
2024-05-09T21:45:39.998Z,2.20
2024-05-09T21:47:42.313Z,2.47
2024-05-09T21:49:44.231Z,2.47
2024-05-09T21:51:46.214Z,2.38
2024-05-09T21:53:50.836Z,2.72
2024-05-09T21:55:52.597Z,2.70
2024-05-09T21:57:54.471Z,2.90
2024-05-09T21:59:56.263Z,2.40
2024-05-09T22:01:58.264Z,2.28
2024-05-09T22:04:00.373Z,2.50
2024-05-09T22:06:02.275Z,2.85
2024-05-09T22:08:04.812Z,2.42
2024-05-09T22:10:19.586Z,2.78
2024-05-09T22:12:24.782Z,2.70
2024-05-09T22:14:26.616Z,2.38
2024-05-09T22:16:28.515Z,2.20
2024-05-09T22:18:30.478Z,2.20
2024-05-09T22:20:37.298Z,2.80
2024-05-09T22:22:41.088Z,2.50
2024-05-09T22:24:42.877Z,2.72
2024-05-09T22:26:47.352Z,2.60
2024-05-09T22:28:49.152Z,2.17
2024-05-09T22:30:50.960Z,2.85
2024-05-09T22:32:52.923Z,2.38
2024-05-09T22:34:54.869Z,2.70
2024-05-09T22:36:56.805Z,2.60
2024-05-09T22:38:58.612Z,2.35
2024-05-09T22:41:00.714Z,2.55
2024-05-09T22:43:05.560Z,2.58
2024-05-09T22:45:07.765Z,2.55
2024-05-09T22:47:09.737Z,2.80
2024-05-09T22:49:11.692Z,2.80
2024-05-09T22:51:13.604Z,2.80
2024-05-09T22:53:15.552Z,2.60
2024-05-09T22:55:17.387Z,2.70
2024-05-09T22:57:19.221Z,2.90
2024-05-09T22:59:23.648Z,2.88
2024-05-09T23:01:26.909Z,3.00
2024-05-09T23:03:28.933Z,2.38
2024-05-09T23:05:31.168Z,2.88
2024-05-09T23:07:33.032Z,3.00
2024-05-09T23:09:34.955Z,2.67
2024-05-09T23:11:40.639Z,2.65
2024-05-09T23:13:42.416Z,2.60
2024-05-09T23:15:46.792Z,2.85
2024-05-09T23:17:48.719Z,3.10
2024-05-09T23:19:50.545Z,2.80
2024-05-09T23:21:52.408Z,2.78
2024-05-09T23:23:54.236Z,2.50
2024-05-09T23:25:56.021Z,2.72
2024-05-09T23:27:59.706Z,2.70
2024-05-09T23:30:01.589Z,2.47
2024-05-09T23:32:06.324Z,2.88
2024-05-09T23:34:08.271Z,2.58
2024-05-09T23:36:10.132Z,3.10
2024-05-09T23:38:12.330Z,3.17
2024-05-09T23:40:18.714Z,3.15
2024-05-09T23:42:24.497Z,3.42
2024-05-09T23:44:26.276Z,4.30
2024-05-09T23:46:29.257Z,3.08
2024-05-09T23:48:34.047Z,3.75
2024-05-09T23:50:38.276Z,3.90
2024-05-09T23:52:41.520Z,3.00
2024-05-09T23:54:43.369Z,3.55
2024-05-09T23:56:45.204Z,2.92
2024-05-09T23:58:47.246Z,3.75
